createdAt,value
2023-05-09T00:00:38.117Z,99479.81
2023-05-09T00:03:14.307Z,99479.00
2023-05-09T00:05:41.920Z,99479.00
2023-05-09T00:08:09.514Z,99475.66
2023-05-09T00:10:36.837Z,99479.13
2023-05-09T00:13:04.377Z,99475.66
2023-05-09T00:15:32.049Z,99480.16
2023-05-09T00:17:59.587Z,99474.81
2023-05-09T00:20:27.212Z,99471.31
2023-05-09T00:22:55.304Z,99464.34
2023-05-09T00:25:22.548Z,99464.34
2023-05-09T00:27:50.248Z,99464.34
2023-05-09T00:30:17.630Z,99456.34
2023-05-09T00:32:45.295Z,99467.00
2023-05-09T00:35:12.863Z,99471.50
2023-05-09T00:37:40.577Z,99453.84
2023-05-09T00:40:09.192Z,99457.31
2023-05-09T00:42:37.108Z,99462.03
2023-05-09T00:45:04.845Z,99451.38
2023-05-09T00:47:32.453Z,99455.03
2023-05-09T00:49:59.886Z,99455.03
2023-05-09T00:52:27.635Z,99456.69
2023-05-09T00:54:55.987Z,99449.69
2023-05-09T00:57:23.630Z,99445.38
2023-05-09T00:59:50.956Z,99443.53
2023-05-09T01:02:19.184Z,99444.53
2023-05-09T01:04:47.217Z,99442.72
2023-05-09T01:07:35.148Z,99441.03
2023-05-09T01:10:15.723Z,99448.06
2023-05-09T01:12:46.818Z,99443.72
2023-05-09T01:15:31.685Z,99440.22
2023-05-09T01:18:06.644Z,99434.06
2023-05-09T01:20:39.917Z,99431.41
2023-05-09T01:23:38.507Z,99436.75
2023-05-09T01:26:26.080Z,99437.72
2023-05-09T01:28:59.776Z,99437.72
2023-05-09T01:31:27.973Z,99436.91
2023-05-09T01:33:59.803Z,99437.06
2023-05-09T01:36:30.542Z,99429.06
2023-05-09T01:38:59.634Z,99432.56
2023-05-09T01:41:31.444Z,99434.41
2023-05-09T01:44:02.222Z,99430.09
2023-05-09T01:46:30.866Z,99432.75
2023-05-09T01:48:59.675Z,99430.09
2023-05-09T01:51:27.968Z,99425.75
2023-05-09T01:53:57.990Z,99432.75
2023-05-09T01:56:26.255Z,99428.41
2023-05-09T01:58:56.115Z,99426.78
2023-05-09T02:01:24.497Z,99422.44
2023-05-09T02:03:55.308Z,99424.94
2023-05-09T02:06:24.338Z,99424.09
2023-05-09T02:08:52.049Z,99417.97
2023-05-09T02:11:19.277Z,99418.78
2023-05-09T02:13:47.364Z,99414.44
2023-05-09T02:16:15.422Z,99417.09
2023-05-09T02:18:42.935Z,99416.28
2023-05-09T02:21:10.408Z,99415.47
2023-05-09T02:23:38.035Z,99411.13
2023-05-09T02:26:05.945Z,99408.47
2023-05-09T02:28:35.138Z,99415.47
2023-05-09T02:31:09.152Z,99413.78
2023-05-09T02:33:38.838Z,99412.16
2023-05-09T02:36:07.190Z,99416.44
2023-05-09T02:38:36.152Z,99410.47
2023-05-09T02:41:03.862Z,99410.47
2023-05-09T02:43:31.435Z,99410.47
2023-05-09T02:45:58.766Z,99408.81
2023-05-09T02:48:26.360Z,99412.31
2023-05-09T02:50:53.570Z,99402.47
2023-05-09T02:53:21.042Z,99408.81
2023-05-09T02:55:48.328Z,99398.16
2023-05-09T02:58:15.988Z,99408.00
2023-05-09T03:00:43.428Z,99407.19
2023-05-09T03:03:11.364Z,99405.50
2023-05-09T03:05:38.852Z,99401.00
2023-05-09T03:08:06.419Z,99404.69
2023-05-09T03:10:34.426Z,99405.50
2023-05-09T03:13:02.016Z,99405.66
2023-05-09T03:15:29.291Z,99405.50
2023-05-09T03:17:56.909Z,99409.19
2023-05-09T03:20:24.340Z,99407.34
2023-05-09T03:22:51.789Z,99408.16
2023-05-09T03:25:22.258Z,99411.00
2023-05-09T03:27:49.832Z,99412.84
2023-05-09T03:30:17.238Z,99413.66
2023-05-09T03:32:44.798Z,99412.84
2023-05-09T03:35:12.255Z,99413.84
2023-05-09T03:37:39.949Z,99411.00
2023-05-09T03:40:07.800Z,99418.16
2023-05-09T03:42:35.402Z,99417.34
2023-05-09T03:45:02.662Z,99412.84
2023-05-09T03:47:30.201Z,99413.66
2023-05-09T03:49:57.403Z,99409.19
2023-05-09T03:52:24.903Z,99407.34
2023-05-09T03:54:52.167Z,99410.84
2023-05-09T03:57:20.047Z,99408.34
2023-05-09T03:59:47.289Z,99417.19
2023-05-09T04:02:15.012Z,99408.16
2023-05-09T04:04:42.392Z,99407.19
2023-05-09T04:07:09.926Z,99422.16
2023-05-09T04:09:37.205Z,99411.31
2023-05-09T04:12:04.883Z,99407.47
2023-05-09T04:14:32.125Z,99408.13
2023-05-09T04:16:59.622Z,99407.97
2023-05-09T04:19:26.910Z,99414.78
2023-05-09T04:21:54.383Z,99414.78
2023-05-09T04:24:22.128Z,99410.09
2023-05-09T04:26:49.736Z,99410.91
2023-05-09T04:29:16.991Z,99409.91
2023-05-09T04:31:44.635Z,99400.09
2023-05-09T04:34:12.135Z,99408.75
2023-05-09T04:36:39.700Z,99411.41
2023-05-09T04:39:08.073Z,99404.22
2023-05-09T04:41:35.633Z,99405.72
2023-05-09T04:44:03.313Z,99405.72
2023-05-09T04:46:30.828Z,99410.75
2023-05-09T04:48:58.182Z,99408.13
2023-05-09T04:51:26.037Z,99399.81
2023-05-09T04:53:53.258Z,99391.53
2023-05-09T04:56:21.780Z,99398.88
2023-05-09T04:58:49.536Z,99398.41
2023-05-09T05:01:17.465Z,99408.41
2023-05-09T05:03:45.978Z,99395.75
2023-05-09T05:06:13.501Z,99396.72
2023-05-09T05:08:40.707Z,99391.22
2023-05-09T05:11:08.205Z,99400.88
2023-05-09T05:13:35.443Z,99395.22
2023-05-09T05:16:03.321Z,99402.19
2023-05-09T05:18:30.556Z,99398.03
2023-05-09T05:20:58.039Z,99397.50
2023-05-09T05:23:25.374Z,99391.66
2023-05-09T05:25:52.927Z,99391.78
2023-05-09T05:28:20.203Z,99386.13
2023-05-09T05:30:47.739Z,99396.41
2023-05-09T05:33:15.006Z,99391.09
2023-05-09T05:35:42.562Z,99398.09
2023-05-09T05:38:10.161Z,99394.56
2023-05-09T05:40:37.684Z,99393.75
2023-05-09T05:43:04.921Z,99384.09
2023-05-09T05:45:32.596Z,99394.94
2023-05-09T05:47:59.979Z,99392.28
2023-05-09T05:50:27.589Z,99386.94
2023-05-09T05:52:54.843Z,99386.94
2023-05-09T05:55:22.350Z,99388.78
2023-05-09T05:57:49.601Z,99385.09
2023-05-09T06:00:17.440Z,99381.63
2023-05-09T06:02:44.950Z,99380.78
2023-05-09T06:05:12.655Z,99377.09
2023-05-09T06:07:44.243Z,99377.09
2023-05-09T06:10:11.715Z,99371.78
2023-05-09T06:12:39.030Z,99368.13
2023-05-09T06:15:07.175Z,99365.47
2023-05-09T06:17:34.789Z,99352.97
2023-05-09T06:20:02.382Z,99352.97
2023-05-09T06:22:29.656Z,99358.13
2023-05-09T06:24:57.379Z,99347.47
2023-05-09T06:27:24.732Z,99363.25
2023-05-09T06:29:52.724Z,99353.41
2023-05-09T06:32:20.236Z,99353.41
2023-05-09T06:34:48.171Z,99352.44
2023-05-09T06:37:15.500Z,99352.25
2023-05-09T06:39:42.988Z,99358.41
2023-05-09T06:42:10.314Z,99357.59
2023-05-09T06:44:37.815Z,99349.38
2023-05-09T06:47:05.118Z,99339.59
2023-05-09T06:49:32.619Z,99343.94
2023-05-09T06:51:59.881Z,99342.94
2023-05-09T06:54:27.507Z,99345.59
2023-05-09T06:56:54.764Z,99341.09
2023-05-09T06:59:22.352Z,99343.38
2023-05-09T07:01:49.863Z,99338.06
2023-05-09T07:04:17.365Z,99329.91
2023-05-09T07:06:44.594Z,99329.72
2023-05-09T07:09:14.903Z,99343.03
2023-05-09T07:11:42.169Z,99330.38
2023-05-09T07:14:09.636Z,99332.03
2023-05-09T07:16:37.872Z,99325.03
2023-05-09T07:19:05.877Z,99312.34
2023-05-09T07:21:34.363Z,99317.66
2023-05-09T07:24:02.472Z,99300.69
2023-05-09T07:26:29.667Z,99305.84
2023-05-09T07:28:57.147Z,99307.50
2023-05-09T07:31:24.906Z,99306.50
2023-05-09T07:33:52.594Z,99306.28
2023-05-09T07:36:20.270Z,99298.50
2023-05-09T07:38:50.448Z,99311.63
2023-05-09T07:41:17.766Z,99291.16
2023-05-09T07:43:45.695Z,99294.63
2023-05-09T07:46:13.076Z,99304.28
2023-05-09T07:48:40.682Z,99294.28
2023-05-09T07:51:07.886Z,99295.28
2023-05-09T07:53:35.828Z,99287.94
2023-05-09T07:56:03.696Z,99284.25
2023-05-09T07:58:31.228Z,99277.28
2023-05-09T08:00:58.489Z,99274.41
2023-05-09T08:03:26.237Z,99282.25
2023-05-09T08:05:55.737Z,99274.25
2023-05-09T08:08:23.657Z,99288.22
2023-05-09T08:10:50.976Z,99280.22
2023-05-09T08:13:19.059Z,99286.19
2023-05-09T08:15:46.371Z,99279.03
2023-05-09T08:18:15.217Z,99277.19
2023-05-09T08:20:42.565Z,99267.16
2023-05-09T08:23:11.017Z,99273.34
2023-05-09T08:25:38.384Z,99279.50
2023-05-09T08:28:06.109Z,99271.34
2023-05-09T08:30:33.832Z,99271.34
2023-05-09T08:33:01.391Z,99268.47
2023-05-09T08:35:28.626Z,99264.81
2023-05-09T08:37:56.220Z,99254.13
2023-05-09T08:40:23.618Z,99258.44
2023-05-09T08:42:51.880Z,99269.75
2023-05-09T08:45:29.079Z,99275.91
2023-05-09T08:47:57.158Z,99266.09
2023-05-09T08:50:25.193Z,99268.56
2023-05-09T08:52:53.589Z,99270.22
2023-05-09T08:55:21.670Z,99265.72
2023-05-09T08:57:49.874Z,99262.03
2023-05-09T09:00:20.847Z,99266.38
2023-05-09T09:02:49.454Z,99264.50
2023-05-09T09:05:39.596Z,99249.16
2023-05-09T09:08:07.318Z,99257.97
2023-05-09T09:10:35.247Z,99257.00
2023-05-09T09:13:04.995Z,99257.97
2023-05-09T09:15:37.084Z,99254.31
2023-05-09T09:18:11.554Z,99256.81
2023-05-09T09:20:49.838Z,99249.81
2023-05-09T09:23:20.601Z,99248.59
2023-05-09T09:25:48.405Z,99260.09
2023-05-09T09:28:15.956Z,99250.94
2023-05-09T09:30:49.694Z,99245.59
2023-05-09T09:33:21.471Z,99248.91
2023-05-09T09:35:50.662Z,99242.53
2023-05-09T09:38:19.835Z,99237.84
2023-05-09T09:40:54.823Z,99233.53
2023-05-09T09:43:30.024Z,99234.38
2023-05-09T09:46:00.542Z,99231.50
2023-05-09T09:48:33.553Z,99238.50
2023-05-09T09:51:10.022Z,99222.50
2023-05-09T09:53:42.381Z,99222.50
2023-05-09T09:56:09.968Z,99230.97
2023-05-09T09:58:37.439Z,99219.25
2023-05-09T10:01:08.563Z,99220.09
2023-05-09T10:03:40.912Z,99220.94
2023-05-09T10:06:15.981Z,99222.41
2023-05-09T10:08:47.151Z,99215.22
2023-05-09T10:11:15.341Z,99221.38
2023-05-09T10:13:44.454Z,99209.50
2023-05-09T10:16:12.844Z,99207.03
2023-05-09T10:18:42.577Z,99208.69
2023-05-09T10:21:13.889Z,99203.00
2023-05-09T10:23:46.226Z,99211.16
2023-05-09T10:26:22.833Z,99213.00
2023-05-09T10:28:54.811Z,99193.94
2023-05-09T10:31:26.465Z,99186.97
2023-05-09T10:33:58.607Z,99181.25
2023-05-09T10:36:26.306Z,99186.59
2023-05-09T10:38:55.578Z,99183.94
2023-05-09T10:41:23.621Z,99189.44
2023-05-09T10:43:51.354Z,99191.28
2023-05-09T10:46:19.237Z,99184.09
2023-05-09T10:48:48.446Z,99186.59
2023-05-09T10:51:17.018Z,99183.75
2023-05-09T10:53:46.227Z,99180.44
2023-05-09T10:56:31.953Z,99172.88
2023-05-09T10:59:00.336Z,99178.84
2023-05-09T11:01:35.520Z,99172.50
2023-05-09T11:04:11.153Z,99169.44
2023-05-09T11:06:44.762Z,99155.09
2023-05-09T11:09:25.826Z,99165.78
2023-05-09T11:11:54.588Z,99154.66
2023-05-09T11:14:37.851Z,99162.25
2023-05-09T11:17:26.364Z,99155.75
2023-05-09T11:19:53.840Z,99136.72
2023-05-09T11:22:22.108Z,99126.03
2023-05-09T11:24:51.481Z,99139.19
2023-05-09T11:27:23.366Z,99138.81
2023-05-09T11:29:58.650Z,99141.28
2023-05-09T11:32:31.625Z,99135.31
2023-05-09T11:35:07.485Z,99137.81
2023-05-09T11:37:44.240Z,99133.94
2023-05-09T11:40:13.638Z,99124.88
2023-05-09T11:42:46.800Z,99126.56
2023-05-09T11:45:14.968Z,99127.38
2023-05-09T11:47:42.931Z,99119.19
2023-05-09T11:50:13.323Z,99102.13
2023-05-09T11:52:41.587Z,99106.47
2023-05-09T11:55:14.484Z,99110.16
2023-05-09T11:57:44.967Z,99104.00
2023-05-09T12:00:13.213Z,99099.47
2023-05-09T12:02:40.570Z,99090.25
2023-05-09T12:05:16.102Z,99095.81
2023-05-09T12:07:44.554Z,99092.91
2023-05-09T12:10:13.936Z,99090.06
2023-05-09T12:12:44.603Z,99087.78
2023-05-09T12:15:16.766Z,99093.78
2023-05-09T12:17:47.133Z,99083.09
2023-05-09T12:20:15.800Z,99072.41
2023-05-09T12:22:43.984Z,99087.16
2023-05-09T12:25:12.388Z,99080.16
2023-05-09T12:27:41.248Z,99076.47
2023-05-09T12:30:10.910Z,99073.59
2023-05-09T12:32:39.565Z,99066.44
2023-05-09T12:35:09.520Z,99058.03
2023-05-09T12:37:36.860Z,99059.88
2023-05-09T12:40:15.439Z,99063.38
2023-05-09T12:42:46.470Z,99055.38
2023-05-09T12:45:15.748Z,99062.09
2023-05-09T12:47:45.353Z,99060.47
2023-05-09T12:50:13.258Z,99056.41
2023-05-09T12:52:54.578Z,99049.00
2023-05-09T12:55:29.747Z,99045.13
2023-05-09T12:57:59.503Z,99049.25
2023-05-09T13:00:27.599Z,99044.56
2023-05-09T13:02:55.132Z,99049.06
2023-05-09T13:05:23.614Z,99041.66
2023-05-09T13:07:52.557Z,99039.22
2023-05-09T13:10:24.206Z,99044.09
2023-05-09T13:12:52.766Z,99040.22
2023-05-09T13:15:22.463Z,99029.16
2023-05-09T13:17:51.964Z,99015.81
2023-05-09T13:20:19.818Z,99008.44
2023-05-09T13:22:47.413Z,99007.41
2023-05-09T13:25:16.077Z,99020.75
2023-05-09T13:27:43.573Z,99022.44
2023-05-09T13:30:11.689Z,99018.72
2023-05-09T13:32:39.300Z,99003.09
2023-05-09T13:35:07.995Z,99010.47
2023-05-09T13:37:35.844Z,99019.91
2023-05-09T13:40:04.243Z,99005.91
2023-05-09T13:42:34.196Z,99013.28
2023-05-09T13:45:01.865Z,99006.28
2023-05-09T13:47:29.152Z,99000.13
2023-05-09T13:49:56.794Z,98989.44
2023-05-09T13:52:24.157Z,98983.09
2023-05-09T13:54:52.294Z,98975.91
2023-05-09T13:57:19.648Z,98981.25
2023-05-09T13:59:47.745Z,98979.22
2023-05-09T14:02:15.022Z,98984.56
2023-05-09T14:04:43.188Z,98987.03
2023-05-09T14:07:12.533Z,98978.19
2023-05-09T14:09:40.700Z,98974.31
2023-05-09T14:12:08.178Z,98974.50
2023-05-09T14:14:36.047Z,98968.13
2023-05-09T14:17:04.448Z,98963.84
2023-05-09T14:19:32.100Z,98964.47
2023-05-09T14:21:59.615Z,98967.13
2023-05-09T14:24:30.743Z,98966.31
2023-05-09T14:26:58.075Z,98954.59
2023-05-09T14:29:25.710Z,98959.94
2023-05-09T14:31:53.120Z,98958.72
2023-05-09T14:34:20.739Z,98955.06
2023-05-09T14:36:48.698Z,98956.69
2023-05-09T14:39:16.368Z,98949.50
2023-05-09T14:41:43.550Z,98952.16
2023-05-09T14:44:11.156Z,98951.34
2023-05-09T14:46:38.523Z,98943.16
2023-05-09T14:49:07.231Z,98945.81
2023-05-09T14:51:34.576Z,98942.31
2023-05-09T14:54:04.403Z,98938.63
2023-05-09T14:56:32.489Z,98933.28
2023-05-09T14:59:00.082Z,98934.94
2023-05-09T15:01:27.611Z,98931.25
2023-05-09T15:03:55.295Z,98929.59
2023-05-09T15:06:23.401Z,98924.28
2023-05-09T15:08:50.966Z,98914.41
2023-05-09T15:11:18.216Z,98909.88
2023-05-09T15:13:45.694Z,98917.06
2023-05-09T15:16:12.984Z,98911.94
2023-05-09T15:18:45.402Z,98908.25
2023-05-09T15:21:13.003Z,98901.25
2023-05-09T15:23:40.841Z,98897.56
2023-05-09T15:26:14.107Z,98895.91
2023-05-09T15:28:41.911Z,98886.88
2023-05-09T15:31:09.271Z,98894.06
2023-05-09T15:33:36.816Z,98894.91
2023-05-09T15:36:04.435Z,98890.56
2023-05-09T15:38:32.009Z,98880.69
2023-05-09T15:40:59.318Z,98879.88
2023-05-09T15:43:26.808Z,98884.22
2023-05-09T15:45:54.184Z,98883.59
2023-05-09T15:48:22.114Z,98875.38
2023-05-09T15:50:49.558Z,98880.69
2023-05-09T15:53:17.106Z,98875.59
2023-05-09T15:55:44.792Z,98865.53
2023-05-09T15:58:13.903Z,98868.38
2023-05-09T16:00:41.203Z,98867.56
2023-05-09T16:03:09.050Z,98865.91
2023-05-09T16:05:36.500Z,98868.38
2023-05-09T16:08:04.251Z,98861.38
2023-05-09T16:10:33.003Z,98864.28
2023-05-09T16:13:00.651Z,98858.09
2023-05-09T16:15:28.173Z,98853.59
2023-05-09T16:17:56.210Z,98864.28
2023-05-09T16:20:23.639Z,98853.59
2023-05-09T16:22:51.271Z,98853.59
2023-05-09T16:25:18.577Z,98850.09
2023-05-09T16:27:46.144Z,98843.94
2023-05-09T16:30:14.420Z,98844.97
2023-05-09T16:32:42.536Z,98846.59
2023-05-09T16:35:10.305Z,98835.91
2023-05-09T16:37:39.060Z,98832.25
2023-05-09T16:40:06.722Z,98838.59
2023-05-09T16:42:34.430Z,98832.44
2023-05-09T16:45:01.701Z,98818.25
2023-05-09T16:47:29.286Z,98828.09
2023-05-09T16:49:56.555Z,98821.94
2023-05-09T16:52:24.478Z,98825.66
2023-05-09T16:54:54.530Z,98823.97
2023-05-09T16:57:22.449Z,98831.19
2023-05-09T16:59:49.637Z,98823.34
2023-05-09T17:02:17.217Z,98823.34
2023-05-09T17:04:44.504Z,98819.88
2023-05-09T17:07:14.392Z,98819.06
2023-05-09T17:09:41.652Z,98813.72
2023-05-09T17:12:14.789Z,98815.34
2023-05-09T17:14:42.419Z,98817.38
2023-05-09T17:17:10.024Z,98822.72
2023-05-09T17:19:37.588Z,98818.25
2023-05-09T17:22:05.848Z,98815.75
2023-05-09T17:24:33.419Z,98805.09
2023-05-09T17:27:01.309Z,98815.75
2023-05-09T17:29:30.609Z,98813.09
2023-05-09T17:32:01.642Z,98808.75
2023-05-09T17:34:29.301Z,98813.28
2023-05-09T17:36:56.875Z,98810.84
2023-05-09T17:39:25.100Z,98809.16
2023-05-09T17:41:52.763Z,98813.69
2023-05-09T17:44:20.105Z,98810.19
2023-05-09T17:46:48.181Z,98816.53
2023-05-09T17:49:16.679Z,98809.56
2023-05-09T17:51:44.258Z,98810.59
2023-05-09T17:54:12.780Z,98807.09
2023-05-09T17:56:40.696Z,98816.09
2023-05-09T17:59:08.172Z,98807.50
2023-05-09T18:01:35.806Z,98813.66
2023-05-09T18:04:03.408Z,98807.69
2023-05-09T18:06:31.256Z,98806.03
2023-05-09T18:08:58.561Z,98806.03
2023-05-09T18:11:26.130Z,98807.06
2023-05-09T18:13:53.452Z,98806.25
2023-05-09T18:16:21.480Z,98802.72
2023-05-09T18:18:48.788Z,98803.78
2023-05-09T18:21:16.390Z,98796.78
2023-05-09T18:23:43.622Z,98805.81
2023-05-09T18:26:11.166Z,98800.47
2023-05-09T18:28:41.659Z,98802.50
2023-05-09T18:31:11.628Z,98801.69
2023-05-09T18:33:39.560Z,98806.19
2023-05-09T18:36:09.518Z,98805.34
2023-05-09T18:38:41.046Z,98805.56
2023-05-09T18:41:10.748Z,98808.22
2023-05-09T18:43:45.688Z,98805.75
2023-05-09T18:46:17.657Z,98809.41
2023-05-09T18:48:50.256Z,98808.59
2023-05-09T18:51:19.062Z,98809.63
2023-05-09T18:53:47.561Z,98813.31
2023-05-09T18:56:18.960Z,98818.88
2023-05-09T18:58:46.354Z,98814.34
2023-05-09T19:01:14.055Z,98815.34
2023-05-09T19:03:45.454Z,98812.69
2023-05-09T19:06:14.702Z,98808.38
2023-05-09T19:08:43.664Z,98807.56
2023-05-09T19:11:11.693Z,98804.03
2023-05-09T19:13:40.818Z,98804.03
2023-05-09T19:16:09.078Z,98809.38
2023-05-09T19:18:36.394Z,98807.75
2023-05-09T19:21:04.143Z,98806.94
2023-05-09T19:23:31.561Z,98799.75
2023-05-09T19:25:59.174Z,98800.75
2023-05-09T19:28:26.736Z,98804.44
2023-05-09T19:30:54.993Z,98799.94
2023-05-09T19:33:22.341Z,98802.59
2023-05-09T19:35:49.853Z,98799.13
2023-05-09T19:38:17.149Z,98799.13
2023-05-09T19:40:44.727Z,98797.47
2023-05-09T19:43:11.957Z,98795.81
2023-05-09T19:45:39.571Z,98786.19
2023-05-09T19:48:07.051Z,98794.19
2023-05-09T19:50:34.580Z,98789.84
2023-05-09T19:53:01.858Z,98790.66
2023-05-09T19:55:29.440Z,98793.34
2023-05-09T19:57:56.680Z,98791.72
2023-05-09T20:00:24.130Z,98790.88
2023-05-09T20:02:51.916Z,98798.91
2023-05-09T20:05:19.616Z,98801.56
2023-05-09T20:07:46.962Z,98794.38
2023-05-09T20:10:15.649Z,98794.56
2023-05-09T20:12:43.523Z,98793.75
2023-05-09T20:15:11.870Z,98792.94
2023-05-09T20:17:39.246Z,98787.59
2023-05-09T20:20:07.291Z,98789.41
2023-05-09T20:22:34.933Z,98785.94
2023-05-09T20:25:02.438Z,98788.59
2023-05-09T20:27:29.703Z,98790.44
2023-05-09T20:29:57.161Z,98784.31
2023-05-09T20:32:24.547Z,98784.31
2023-05-09T20:34:52.087Z,98788.81
2023-05-09T20:37:19.518Z,98781.81
2023-05-09T20:39:47.205Z,98774.84
2023-05-09T20:42:14.979Z,98785.53
2023-05-09T20:44:42.827Z,98791.66
2023-05-09T20:47:10.678Z,98790.00
2023-05-09T20:49:38.284Z,98783.66
2023-05-09T20:52:05.598Z,98790.84
2023-05-09T20:54:33.082Z,98783.03
2023-05-09T20:57:00.516Z,98788.38
2023-05-09T20:59:28.217Z,98791.03
2023-05-09T21:01:56.057Z,98782.22
2023-05-09T21:04:23.746Z,98784.88
2023-05-09T21:06:51.069Z,98785.06
2023-05-09T21:09:18.799Z,98785.88
2023-05-09T21:11:46.526Z,98776.25
2023-05-09T21:14:14.085Z,98769.06
2023-05-09T21:16:43.743Z,98769.06
2023-05-09T21:19:11.373Z,98776.25
2023-05-09T21:21:38.592Z,98772.75
2023-05-09T21:24:09.180Z,98768.44
2023-05-09T21:26:36.700Z,98762.06
2023-05-09T21:29:04.351Z,98760.44
2023-05-09T21:31:31.658Z,98771.13
2023-05-09T21:33:59.490Z,98772.16
2023-05-09T21:36:26.968Z,98769.47
2023-05-09T21:38:54.453Z,98776.63
2023-05-09T21:41:21.913Z,98770.47
2023-05-09T21:43:49.809Z,98770.47
2023-05-09T21:46:17.040Z,98763.50
2023-05-09T21:48:44.531Z,98768.84
2023-05-09T21:51:12.316Z,98765.34
2023-05-09T21:53:39.864Z,98768.22
2023-05-09T21:56:08.151Z,98764.53
2023-05-09T21:58:35.663Z,98763.69
2023-05-09T22:01:03.096Z,98769.03
2023-05-09T22:03:30.720Z,98761.22
2023-05-09T22:05:58.054Z,98756.94
2023-05-09T22:08:25.776Z,98759.59
2023-05-09T22:10:53.450Z,98752.59
2023-05-09T22:13:21.110Z,98758.75
2023-05-09T22:15:48.422Z,98757.94
2023-05-09T22:18:15.920Z,98761.63
2023-05-09T22:20:43.163Z,98760.59
2023-05-09T22:23:10.677Z,98753.63
2023-05-09T22:25:38.514Z,98750.97
2023-05-09T22:28:06.173Z,98750.16
2023-05-09T22:30:33.449Z,98751.97
2023-05-09T22:33:01.119Z,98749.28
2023-05-09T22:35:28.448Z,98743.97
2023-05-09T22:37:56.524Z,98743.97
2023-05-09T22:40:23.755Z,98746.63
2023-05-09T22:42:51.297Z,98742.34
2023-05-09T22:45:18.611Z,98741.50
2023-05-09T22:47:46.310Z,98739.66
2023-05-09T22:50:13.585Z,98735.34
2023-05-09T22:52:41.490Z,98737.19
2023-05-09T22:55:08.990Z,98739.84
2023-05-09T22:57:36.831Z,98739.84
2023-05-09T23:00:04.680Z,98739.03
2023-05-09T23:02:32.488Z,98742.69
2023-05-09T23:05:00.005Z,98742.69
2023-05-09T23:07:27.593Z,98732.03
2023-05-09T23:09:54.898Z,98741.06
2023-05-09T23:12:22.394Z,98735.75
2023-05-09T23:14:49.656Z,98741.88
2023-05-09T23:17:17.292Z,98740.25
2023-05-09T23:19:45.913Z,98734.06
2023-05-09T23:22:13.411Z,98727.13
2023-05-09T23:24:41.270Z,98740.44
2023-05-09T23:27:09.404Z,98724.44
2023-05-09T23:29:36.651Z,98732.44
2023-05-09T23:32:04.309Z,98726.28
2023-05-09T23:34:31.547Z,98725.47
2023-05-09T23:36:59.063Z,98722.81
2023-05-09T23:39:26.500Z,98721.16
2023-05-09T23:41:54.059Z,98725.47
2023-05-09T23:44:21.342Z,98721.97
2023-05-09T23:46:48.840Z,98716.84
2023-05-09T23:49:16.266Z,98711.31
2023-05-09T23:51:43.865Z,98711.53
2023-05-09T23:54:11.127Z,98704.53
2023-05-09T23:56:38.720Z,98709.84
2023-05-09T23:59:06.228Z,98709.84
